createdAt,value
2018-11-03T00:02:21.928Z,53.30
2018-11-03T00:04:50.468Z,53.10
2018-11-03T00:07:19.668Z,53.30
2018-11-03T00:09:48.957Z,53.10
2018-11-03T00:12:17.513Z,52.90
2018-11-03T00:14:46.325Z,53.10
2018-11-03T00:17:14.944Z,53.10
2018-11-03T00:19:43.569Z,53.20
2018-11-03T00:22:12.728Z,53.10
2018-11-03T00:24:41.319Z,52.90
2018-11-03T00:27:09.929Z,52.90
2018-11-03T00:29:38.449Z,52.90
2018-11-03T00:32:07.036Z,52.90
2018-11-03T00:34:35.640Z,52.90
2018-11-03T00:37:04.472Z,53.10
2018-11-03T00:39:33.042Z,52.80
2018-11-03T00:42:01.581Z,52.90
2018-11-03T00:44:30.140Z,52.90
2018-11-03T00:46:58.665Z,53.00
2018-11-03T00:49:27.270Z,52.90
2018-11-03T00:51:56.035Z,52.90
2018-11-03T00:54:24.700Z,52.80
2018-11-03T00:56:53.406Z,52.90
2018-11-03T00:59:22.071Z,53.00
2018-11-03T01:01:50.635Z,52.80
2018-11-03T01:04:19.160Z,53.00
2018-11-03T01:06:47.987Z,52.70
2018-11-03T01:09:16.573Z,53.00
2018-11-03T01:11:45.112Z,52.90
2018-11-03T01:14:13.768Z,52.80
2018-11-03T01:16:42.441Z,53.20
2018-11-03T01:19:11.017Z,53.00
2018-11-03T01:21:39.923Z,53.00
2018-11-03T01:24:09.398Z,53.30
2018-11-03T01:26:37.913Z,53.10
2018-11-03T01:29:06.492Z,53.20
2018-11-03T01:31:35.040Z,53.20
2018-11-03T01:34:03.654Z,53.10
2018-11-03T01:36:32.224Z,52.70
2018-11-03T01:39:00.722Z,53.20
2018-11-03T01:41:29.225Z,53.20
2018-11-03T01:43:57.863Z,53.20
2018-11-03T01:46:26.423Z,53.20
2018-11-03T01:48:55.010Z,53.10
2018-11-03T01:51:23.630Z,52.90
2018-11-03T01:53:52.117Z,53.10
2018-11-03T01:56:20.744Z,53.00
2018-11-03T01:58:49.319Z,52.90
2018-11-03T02:01:17.833Z,52.90
2018-11-03T02:03:46.425Z,52.90
2018-11-03T02:06:15.024Z,52.90
2018-11-03T02:08:43.674Z,53.00
2018-11-03T02:11:12.352Z,53.00
2018-11-03T02:13:40.904Z,53.10
2018-11-03T02:16:09.415Z,52.40
2018-11-03T02:18:38.248Z,53.20
2018-11-03T02:21:06.920Z,53.20
2018-11-03T02:23:35.398Z,53.20
2018-11-03T02:26:04.313Z,53.10
2018-11-03T02:28:32.853Z,53.50
2018-11-03T02:31:01.877Z,53.20
2018-11-03T02:33:30.590Z,53.20
2018-11-03T02:35:59.141Z,53.40
2018-11-03T02:38:27.827Z,53.20
2018-11-03T02:40:56.381Z,53.30
2018-11-03T02:43:25.120Z,53.20
2018-11-03T02:45:53.800Z,53.10
2018-11-03T02:48:22.398Z,53.60
2018-11-03T02:50:51.160Z,53.00
2018-11-03T02:53:19.805Z,52.90
2018-11-03T02:55:48.327Z,52.90
2018-11-03T02:58:16.952Z,52.80
2018-11-03T03:00:45.717Z,52.90
2018-11-03T03:03:14.248Z,52.90
2018-11-03T03:05:42.892Z,52.90
2018-11-03T03:08:11.940Z,52.90
2018-11-03T03:10:40.502Z,53.20
2018-11-03T03:13:09.379Z,53.10
2018-11-03T03:15:38.003Z,53.00
2018-11-03T03:18:06.624Z,53.10
2018-11-03T03:20:35.500Z,53.10
2018-11-03T03:23:04.223Z,53.10
2018-11-03T03:25:32.841Z,53.20
2018-11-03T03:28:01.485Z,52.90
2018-11-03T03:30:30.740Z,53.10
2018-11-03T03:32:59.303Z,53.00
2018-11-03T03:35:28.492Z,52.90
2018-11-03T03:37:57.020Z,52.80
2018-11-03T03:40:25.625Z,53.00
2018-11-03T03:42:54.146Z,52.90
2018-11-03T03:45:22.748Z,53.00
2018-11-03T03:47:51.721Z,53.00
2018-11-03T03:50:20.334Z,52.80
2018-11-03T03:52:48.839Z,52.80
2018-11-03T03:55:17.403Z,53.00
2018-11-03T03:57:45.926Z,53.10
2018-11-03T04:00:14.440Z,52.90
2018-11-03T04:02:44.475Z,52.80
2018-11-03T04:05:13.033Z,52.90
2018-11-03T04:07:41.575Z,52.90
2018-11-03T04:10:10.749Z,52.80
2018-11-03T04:12:39.688Z,53.10
2018-11-03T04:15:08.627Z,53.20
2018-11-03T04:17:37.419Z,52.90
2018-11-03T04:20:07.003Z,52.80
2018-11-03T04:22:35.731Z,52.90
2018-11-03T04:25:04.821Z,52.60
2018-11-03T04:27:33.669Z,52.60
2018-11-03T04:30:02.207Z,52.50
2018-11-03T04:32:30.833Z,52.60
2018-11-03T04:34:59.400Z,52.70
2018-11-03T04:37:27.908Z,52.70
2018-11-03T04:39:56.773Z,52.60
2018-11-03T04:42:25.359Z,52.90
2018-11-03T04:44:53.886Z,53.30
2018-11-03T04:47:22.479Z,52.70
2018-11-03T04:49:51.108Z,52.90
2018-11-03T04:52:19.662Z,52.90
2018-11-03T04:54:48.256Z,52.70
2018-11-03T04:57:16.984Z,52.60
2018-11-03T04:59:45.474Z,52.70
2018-11-03T05:02:14.008Z,52.50
2018-11-03T05:04:42.514Z,52.60
2018-11-03T05:07:11.111Z,52.40
2018-11-03T05:09:39.804Z,52.50
2018-11-03T05:12:08.312Z,52.50
2018-11-03T05:14:36.831Z,52.50
2018-11-03T05:17:05.764Z,52.20
2018-11-03T05:19:34.488Z,52.40
2018-11-03T05:22:03.174Z,52.50
2018-11-03T05:24:31.803Z,52.60
2018-11-03T05:27:00.424Z,52.50
2018-11-03T05:29:28.927Z,52.60
2018-11-03T05:31:57.530Z,52.80
2018-11-03T05:34:26.114Z,52.70
2018-11-03T05:36:54.629Z,52.60
2018-11-03T05:39:23.225Z,52.50
2018-11-03T05:41:51.812Z,52.80
2018-11-03T05:44:20.332Z,52.80
2018-11-03T05:46:48.872Z,52.40
2018-11-03T05:49:17.503Z,52.50
2018-11-03T05:51:46.025Z,52.40
2018-11-03T05:54:14.529Z,52.60
2018-11-03T05:56:43.096Z,52.80
2018-11-03T05:59:11.717Z,52.90
2018-11-03T06:01:40.215Z,53.00
2018-11-03T06:04:09.037Z,52.90
2018-11-03T06:06:37.518Z,53.00
2018-11-03T06:09:08.169Z,53.10
2018-11-03T06:11:36.705Z,52.90
2018-11-03T06:14:05.438Z,52.90
2018-11-03T06:16:34.244Z,52.70
2018-11-03T06:19:02.764Z,52.90
2018-11-03T06:21:31.477Z,52.60
2018-11-03T06:23:59.992Z,52.70
2018-11-03T06:26:28.616Z,52.80
2018-11-03T06:28:57.194Z,52.80
2018-11-03T06:31:25.842Z,53.00
2018-11-03T06:33:54.363Z,52.80
2018-11-03T06:36:22.933Z,53.50
2018-11-03T06:38:51.618Z,52.80
2018-11-03T06:41:20.035Z,53.10
2018-11-03T06:43:48.649Z,53.00
2018-11-03T06:46:17.247Z,53.00
2018-11-03T06:48:45.868Z,53.00
2018-11-03T06:51:14.859Z,53.00
2018-11-03T06:53:43.390Z,53.30
2018-11-03T06:56:11.912Z,53.20
2018-11-03T06:58:40.475Z,53.20
2018-11-03T07:01:09.076Z,53.00
2018-11-03T07:03:37.667Z,53.20
2018-11-03T07:06:06.330Z,53.20
2018-11-03T07:08:35.019Z,53.20
2018-11-03T07:11:03.654Z,53.40
2018-11-03T07:13:33.094Z,53.30
2018-11-03T07:16:01.786Z,53.40
2018-11-03T07:18:30.340Z,53.40
2018-11-03T07:20:58.918Z,53.50
2018-11-03T07:23:27.427Z,53.50
2018-11-03T07:25:55.959Z,53.30
2018-11-03T07:28:24.455Z,53.20
2018-11-03T07:30:53.489Z,53.60
2018-11-03T07:33:22.294Z,53.60
2018-11-03T07:35:50.886Z,54.00
2018-11-03T07:38:19.533Z,53.90
2018-11-03T07:40:48.945Z,53.90
2018-11-03T07:43:17.464Z,53.70
2018-11-03T07:45:46.074Z,53.60
2018-11-03T07:48:14.800Z,53.70
2018-11-03T07:50:43.364Z,53.90
2018-11-03T07:53:11.902Z,54.10
2018-11-03T07:55:40.450Z,54.10
2018-11-03T07:58:09.046Z,54.30
2018-11-03T08:00:37.705Z,54.00
2018-11-03T08:03:06.743Z,54.30
2018-11-03T08:05:35.375Z,54.30
2018-11-03T08:08:03.958Z,54.40
2018-11-03T08:10:32.520Z,54.30
2018-11-03T08:13:01.127Z,54.50
2018-11-03T08:15:29.680Z,54.30
2018-11-03T08:17:58.272Z,54.40
2018-11-03T08:20:26.900Z,54.60
2018-11-03T08:22:55.451Z,54.60
2018-11-03T08:25:23.988Z,54.70
2018-11-03T08:27:52.564Z,54.70
2018-11-03T08:30:21.165Z,54.60
2018-11-03T08:32:49.756Z,54.80
2018-11-03T08:35:18.374Z,54.70
2018-11-03T08:37:46.974Z,55.10
2018-11-03T08:40:16.396Z,55.10
2018-11-03T08:42:44.999Z,54.70
2018-11-03T08:45:13.552Z,55.60
2018-11-03T08:47:42.089Z,54.90
2018-11-03T08:50:11.789Z,55.00
2018-11-03T08:52:41.765Z,55.00
2018-11-03T08:55:12.025Z,55.10
2018-11-03T08:57:40.604Z,55.00
2018-11-03T09:00:11.573Z,55.20
2018-11-03T09:02:40.666Z,55.00
2018-11-03T09:05:09.889Z,55.10
2018-11-03T09:07:38.891Z,55.10
2018-11-03T09:10:09.611Z,55.20
2018-11-03T09:12:38.504Z,55.10
2018-11-03T09:15:09.401Z,55.20
2018-11-03T09:17:38.762Z,55.20
2018-11-03T09:20:08.356Z,55.20
2018-11-03T09:22:39.761Z,55.30
2018-11-03T09:25:11.195Z,55.20
2018-11-03T09:27:40.732Z,55.20
2018-11-03T09:30:12.018Z,55.40
2018-11-03T09:32:40.937Z,55.40
2018-11-03T09:35:10.653Z,55.50
2018-11-03T09:37:39.543Z,55.60
2018-11-03T09:40:10.686Z,55.70
2018-11-03T09:42:40.309Z,55.60
2018-11-03T09:45:10.148Z,55.90
2018-11-03T09:47:38.983Z,56.00
2018-11-03T09:50:08.856Z,55.80
2018-11-03T09:52:37.515Z,56.00
2018-11-03T09:55:07.996Z,55.90
2018-11-03T09:57:36.748Z,56.00
2018-11-03T10:00:08.268Z,56.30
2018-11-03T10:02:36.939Z,55.90
2018-11-03T10:05:06.322Z,55.90
2018-11-03T10:07:34.880Z,55.50
2018-11-03T10:10:03.661Z,54.50
2018-11-03T10:12:32.244Z,54.30
2018-11-03T10:15:00.869Z,54.50
2018-11-03T10:17:29.469Z,54.40
2018-11-03T10:19:58.224Z,54.10
2018-11-03T10:22:27.008Z,54.60
2018-11-03T10:24:55.399Z,54.80
2018-11-03T10:27:24.035Z,54.30
2018-11-03T10:29:52.682Z,54.30
2018-11-03T10:32:21.346Z,53.90
2018-11-03T10:34:49.910Z,54.20
2018-11-03T10:37:19.275Z,54.10
2018-11-03T10:39:47.805Z,53.80
2018-11-03T10:42:16.387Z,53.80
2018-11-03T10:44:45.183Z,54.30
2018-11-03T10:47:13.799Z,53.90
2018-11-03T10:49:44.087Z,54.60
2018-11-03T10:52:13.500Z,53.80
2018-11-03T10:54:42.145Z,53.70
2018-11-03T10:57:11.345Z,53.70
2018-11-03T10:59:39.955Z,53.60
2018-11-03T11:02:14.021Z,53.40
2018-11-03T11:07:33.424Z,53.20
2018-11-03T11:10:07.230Z,52.80
2018-11-03T11:12:40.769Z,52.70
2018-11-03T11:15:10.242Z,52.80
2018-11-03T11:17:38.851Z,52.70
2018-11-03T11:20:08.952Z,52.80
2018-11-03T11:22:37.837Z,52.50
2018-11-03T11:25:08.545Z,52.30
2018-11-03T11:27:37.066Z,52.20
2018-11-03T11:30:07.207Z,52.00
2018-11-03T11:32:35.949Z,51.80
2018-11-03T11:35:04.999Z,51.60
2018-11-03T11:37:33.620Z,51.40
2018-11-03T11:40:02.128Z,51.30
2018-11-03T11:42:31.051Z,51.00
2018-11-03T11:45:00.247Z,50.90
2018-11-03T11:47:28.880Z,51.00
2018-11-03T11:49:57.464Z,50.60
2018-11-03T11:52:26.126Z,50.30
2018-11-03T11:54:54.735Z,50.10
2018-11-03T11:57:23.313Z,49.60
2018-11-03T11:59:52.735Z,49.50
2018-11-03T12:02:21.460Z,49.50
2018-11-03T12:04:50.592Z,49.70
2018-11-03T12:07:19.263Z,49.80
2018-11-03T12:09:47.983Z,49.20
2018-11-03T12:12:16.606Z,49.30
2018-11-03T12:14:45.524Z,49.30
2018-11-03T12:17:14.968Z,49.30
2018-11-03T12:19:43.603Z,48.90
2018-11-03T12:22:12.791Z,48.70
2018-11-03T12:24:41.363Z,48.90
2018-11-03T12:27:10.769Z,49.10
2018-11-03T12:29:39.548Z,48.50
2018-11-03T12:32:08.254Z,48.10
2018-11-03T12:34:36.816Z,48.00
2018-11-03T12:37:05.712Z,47.40
2018-11-03T12:39:34.701Z,47.30
2018-11-03T12:42:03.294Z,47.00
2018-11-03T12:44:31.985Z,47.10
2018-11-03T12:47:00.692Z,46.80
2018-11-03T12:49:29.327Z,46.60
2018-11-03T12:51:57.963Z,46.90
2018-11-03T12:54:26.565Z,47.00
2018-11-03T12:56:55.150Z,46.20
2018-11-03T12:59:24.049Z,46.40
2018-11-03T13:01:52.529Z,46.10
2018-11-03T13:04:21.145Z,45.80
2018-11-03T13:06:49.894Z,45.80
2018-11-03T13:09:18.529Z,45.70
2018-11-03T13:11:47.233Z,45.60
2018-11-03T13:14:15.833Z,45.90
2018-11-03T13:16:44.632Z,45.40
2018-11-03T13:19:13.176Z,45.30
2018-11-03T13:21:41.934Z,45.10
2018-11-03T13:24:11.217Z,45.10
2018-11-03T13:26:39.930Z,45.30
2018-11-03T13:29:08.632Z,45.20
2018-11-03T13:31:37.233Z,45.20
2018-11-03T13:34:06.478Z,44.60
2018-11-03T13:36:35.173Z,44.40
2018-11-03T13:39:05.257Z,44.10
2018-11-03T13:41:33.849Z,43.90
2018-11-03T13:44:03.161Z,43.60
2018-11-03T13:46:32.005Z,43.90
2018-11-03T13:49:00.652Z,43.80
2018-11-03T13:51:29.176Z,43.10
2018-11-03T13:53:57.932Z,42.80
2018-11-03T13:56:26.462Z,43.50
2018-11-03T13:58:55.028Z,42.90
2018-11-03T14:01:23.744Z,43.10
2018-11-03T14:03:52.295Z,43.00
2018-11-03T14:06:20.838Z,43.10
2018-11-03T14:08:49.593Z,43.30
2018-11-03T14:11:18.344Z,43.40
2018-11-03T14:13:46.881Z,43.30
2018-11-03T14:16:15.475Z,43.50
2018-11-03T14:18:44.000Z,42.70
2018-11-03T14:21:12.593Z,42.70
2018-11-03T14:23:41.223Z,42.40
2018-11-03T14:26:09.790Z,42.50
2018-11-03T14:28:38.437Z,42.60
2018-11-03T14:31:07.213Z,42.60
2018-11-03T14:33:35.864Z,42.00
2018-11-03T14:36:04.453Z,41.60
2018-11-03T14:38:33.167Z,41.60
2018-11-03T14:41:01.860Z,41.10
2018-11-03T14:43:30.489Z,41.20
2018-11-03T14:45:59.062Z,41.20
2018-11-03T14:48:27.740Z,41.00
2018-11-03T14:50:56.405Z,41.10
2018-11-03T14:53:25.032Z,41.20
2018-11-03T14:55:53.703Z,41.10
2018-11-03T14:58:22.358Z,41.10
2018-11-03T15:00:51.041Z,41.10
2018-11-03T15:03:19.653Z,41.20
2018-11-03T15:05:49.623Z,41.10
2018-11-03T15:08:19.040Z,41.10
2018-11-03T15:10:47.536Z,41.60
2018-11-03T15:13:16.320Z,41.80
2018-11-03T15:15:44.885Z,42.00
2018-11-03T15:18:13.431Z,42.20
2018-11-03T15:20:41.990Z,42.20
2018-11-03T15:23:10.583Z,42.50
2018-11-03T15:25:39.309Z,42.70
2018-11-03T15:28:07.892Z,42.70
2018-11-03T15:30:36.645Z,42.70
2018-11-03T15:33:05.455Z,42.80
2018-11-03T15:35:34.002Z,43.10
2018-11-03T15:38:02.632Z,43.30
2018-11-03T15:40:31.279Z,43.20
2018-11-03T15:42:59.932Z,43.30
2018-11-03T15:45:28.504Z,43.50
2018-11-03T15:47:57.145Z,43.60
2018-11-03T15:50:26.288Z,43.60
2018-11-03T15:52:54.805Z,44.10
2018-11-03T15:55:23.346Z,43.60
2018-11-03T15:57:51.892Z,44.00
2018-11-03T16:00:21.487Z,44.10
2018-11-03T16:02:50.267Z,44.10
2018-11-03T16:05:18.794Z,44.30
2018-11-03T16:07:48.335Z,44.40
2018-11-03T16:10:16.896Z,44.40
2018-11-03T16:12:45.522Z,44.60
2018-11-03T16:15:14.292Z,44.60
2018-11-03T16:17:43.635Z,44.70
2018-11-03T16:20:13.044Z,45.10
2018-11-03T16:22:42.297Z,44.80
2018-11-03T16:25:11.117Z,44.80
2018-11-03T16:27:40.545Z,45.00
2018-11-03T16:30:13.429Z,45.10
2018-11-03T16:32:42.282Z,45.50
2018-11-03T16:35:10.765Z,45.60
2018-11-03T16:37:40.020Z,45.60
2018-11-03T16:40:10.342Z,46.00
2018-11-03T16:42:39.161Z,45.90
2018-11-03T16:45:09.347Z,46.30
2018-11-03T16:47:38.300Z,46.40
2018-11-03T16:50:08.505Z,46.80
2018-11-03T16:52:37.646Z,46.90
2018-11-03T16:55:06.916Z,46.90
2018-11-03T16:57:35.980Z,46.80
2018-11-03T17:00:05.706Z,47.00
2018-11-03T17:02:34.692Z,47.00
2018-11-03T17:05:03.281Z,47.20
2018-11-03T17:07:32.516Z,47.30
2018-11-03T17:10:01.103Z,47.30
2018-11-03T17:12:29.776Z,47.20
2018-11-03T17:14:58.448Z,47.20
2018-11-03T17:17:27.013Z,47.50
2018-11-03T17:19:55.553Z,47.20
2018-11-03T17:22:24.434Z,47.70
2018-11-03T17:24:53.020Z,47.40
2018-11-03T17:27:21.796Z,47.50
2018-11-03T17:29:50.336Z,47.70
2018-11-03T17:32:18.974Z,47.70
2018-11-03T17:34:47.537Z,47.70
2018-11-03T17:37:16.100Z,47.80
2018-11-03T17:39:44.704Z,48.00
2018-11-03T17:42:13.468Z,47.90
2018-11-03T17:44:42.024Z,48.10
2018-11-03T17:47:10.798Z,47.80
2018-11-03T17:49:39.352Z,48.10
2018-11-03T17:52:08.187Z,47.80
2018-11-03T17:54:36.840Z,48.10
2018-11-03T17:57:05.491Z,48.10
2018-11-03T17:59:34.071Z,48.30
2018-11-03T18:02:02.741Z,48.20
2018-11-03T18:04:31.434Z,48.20
2018-11-03T18:07:00.085Z,48.10
2018-11-03T18:09:29.109Z,48.10
2018-11-03T18:11:57.813Z,48.20
2018-11-03T18:14:26.503Z,48.10
2018-11-03T18:16:55.257Z,48.20
2018-11-03T18:19:23.908Z,48.10
2018-11-03T18:21:52.595Z,48.00
2018-11-03T18:24:21.363Z,48.10
2018-11-03T18:26:49.972Z,48.10
2018-11-03T18:29:18.514Z,48.20
2018-11-03T18:31:47.125Z,47.90
2018-11-03T18:34:15.811Z,48.00
2018-11-03T18:36:44.358Z,47.90
2018-11-03T18:39:12.914Z,48.80
2018-11-03T18:41:41.947Z,48.20
2018-11-03T18:44:10.479Z,48.00
2018-11-03T18:46:39.210Z,47.90
2018-11-03T18:49:07.856Z,48.20
2018-11-03T18:51:36.438Z,48.20
2018-11-03T18:54:05.181Z,48.30
2018-11-03T18:56:33.987Z,48.30
2018-11-03T18:59:02.580Z,48.20
2018-11-03T19:01:31.159Z,48.30
2018-11-03T19:03:59.994Z,48.10
2018-11-03T19:06:28.588Z,48.10
2018-11-03T19:08:57.142Z,48.50
2018-11-03T19:11:25.801Z,48.10
2018-11-03T19:13:54.487Z,48.40
2018-11-03T19:16:23.151Z,48.40
2018-11-03T19:18:51.729Z,48.30
2018-11-03T19:21:20.339Z,48.50
2018-11-03T19:23:49.106Z,48.40
2018-11-03T19:26:17.699Z,48.50
2018-11-03T19:28:46.343Z,49.50
2018-11-03T19:31:14.929Z,49.50
2018-11-03T19:33:43.462Z,49.80
2018-11-03T19:36:12.072Z,50.00
2018-11-03T19:38:40.624Z,49.50
2018-11-03T19:41:09.205Z,49.60
2018-11-03T19:43:37.820Z,49.70
2018-11-03T19:46:06.530Z,49.90
2018-11-03T19:48:35.186Z,49.70
2018-11-03T19:51:03.789Z,49.70
2018-11-03T19:53:32.369Z,49.70
2018-11-03T19:56:00.954Z,49.70
2018-11-03T19:58:29.602Z,49.70
2018-11-03T20:00:58.191Z,49.70
2018-11-03T20:03:26.955Z,50.00
2018-11-03T20:05:55.599Z,49.60
2018-11-03T20:08:24.713Z,49.60
2018-11-03T20:10:53.301Z,49.60
2018-11-03T20:13:21.903Z,49.70
2018-11-03T20:15:50.921Z,49.70
2018-11-03T20:18:19.526Z,50.00
2018-11-03T20:20:48.373Z,50.10
2018-11-03T20:23:16.936Z,49.80
2018-11-03T20:25:45.520Z,50.00
2018-11-03T20:28:14.100Z,50.10
2018-11-03T20:30:42.795Z,50.00
2018-11-03T20:33:11.505Z,50.10
2018-11-03T20:35:40.041Z,50.20
2018-11-03T20:38:08.691Z,50.20
2018-11-03T20:40:37.321Z,50.20
2018-11-03T20:43:06.550Z,50.20
2018-11-03T20:45:35.358Z,50.00
2018-11-03T20:48:03.986Z,50.00
2018-11-03T20:50:32.681Z,49.70
2018-11-03T20:53:01.342Z,49.70
2018-11-03T20:55:29.942Z,49.70
2018-11-03T20:57:58.517Z,49.50
2018-11-03T21:00:27.103Z,49.60
2018-11-03T21:02:55.724Z,49.60
2018-11-03T21:05:25.181Z,49.60
2018-11-03T21:07:54.477Z,49.60
2018-11-03T21:10:23.094Z,49.80
2018-11-03T21:12:51.759Z,49.80
2018-11-03T21:15:20.472Z,50.00
2018-11-03T21:17:49.090Z,50.20
2018-11-03T21:20:17.623Z,50.20
2018-11-03T21:22:46.241Z,50.00
2018-11-03T21:25:14.776Z,50.00
2018-11-03T21:27:44.024Z,50.10
2018-11-03T21:30:12.831Z,50.20
2018-11-03T21:32:41.540Z,50.40
2018-11-03T21:35:10.236Z,50.30
2018-11-03T21:37:38.788Z,50.10
2018-11-03T21:40:08.197Z,50.20
2018-11-03T21:42:36.812Z,50.20
2018-11-03T21:45:06.018Z,50.00
2018-11-03T21:47:34.601Z,50.10
2018-11-03T21:50:03.334Z,50.20
2018-11-03T21:52:31.902Z,50.10
2018-11-03T21:55:00.493Z,50.10
2018-11-03T21:57:29.032Z,49.90
2018-11-03T21:59:57.548Z,49.70
2018-11-03T22:02:26.330Z,49.80
2018-11-03T22:04:54.872Z,49.90
2018-11-03T22:07:23.583Z,49.90
2018-11-03T22:09:52.151Z,49.80
2018-11-03T22:12:20.688Z,49.80
2018-11-03T22:14:49.200Z,49.90
2018-11-03T22:17:17.958Z,49.80
2018-11-03T22:19:46.557Z,49.90
2018-11-03T22:22:15.114Z,50.00
2018-11-03T22:24:43.705Z,50.00
2018-11-03T22:27:12.447Z,49.80
2018-11-03T22:29:41.117Z,50.00
2018-11-03T22:32:09.723Z,49.90
2018-11-03T22:34:38.282Z,49.80
2018-11-03T22:37:06.842Z,49.80
2018-11-03T22:39:35.385Z,49.70
2018-11-03T22:42:04.168Z,49.50
2018-11-03T22:44:32.907Z,49.80
2018-11-03T22:47:01.486Z,49.80
2018-11-03T22:49:30.754Z,49.70
2018-11-03T22:51:59.673Z,49.80
2018-11-03T22:54:28.065Z,49.90
2018-11-03T22:56:56.710Z,49.80
2018-11-03T22:59:25.304Z,49.70
2018-11-03T23:01:53.818Z,49.60
2018-11-03T23:04:22.338Z,50.00
2018-11-03T23:06:50.944Z,49.70
2018-11-03T23:09:19.525Z,50.00
2018-11-03T23:11:48.067Z,49.70
2018-11-03T23:14:16.861Z,49.50
2018-11-03T23:16:45.575Z,49.50
2018-11-03T23:19:14.308Z,49.80
2018-11-03T23:21:43.037Z,49.60
2018-11-03T23:24:11.608Z,49.70
2018-11-03T23:26:40.288Z,49.60
2018-11-03T23:29:08.789Z,49.80
2018-11-03T23:31:37.404Z,49.70
2018-11-03T23:34:06.300Z,50.00
2018-11-03T23:36:34.832Z,50.50
2018-11-03T23:39:03.525Z,50.10
2018-11-03T23:41:32.069Z,49.60
2018-11-03T23:44:00.834Z,50.00
2018-11-03T23:46:29.387Z,50.10
2018-11-03T23:48:57.935Z,50.00
2018-11-03T23:51:26.513Z,49.90
2018-11-03T23:53:55.134Z,49.90
2018-11-03T23:56:23.797Z,49.80
2018-11-03T23:58:52.462Z,50.00
